Winchendon Springs, MA (01477)

1:29 AM EST on February 14, 2016 (GMT -0500)
Lake Monomonac | | Change Station
CLOSE
Current Station
Personal Weather Station
Location: Rindge, NH
Elevation: 1047 ft
Nearby Weather Stations

Elev 1047 ft 42.71 °N, 72.00 °W | Updated 1 minute ago

Clear
Clear
-15.0 °F
Feels Like -34 °F
N
9.9
Wind Variable Wind from West

Today
High -- | Low -- °F
--% Chance of Precip.
Yesterday
High -- | Low -- °F
Precip. -- in
Pressure 30.19 in
Visibility 10.0 miles
Clouds Clear
Windchill -34 °F
Dew Point -23 °F
Humidity 65%
Rainfall 0.00 in
Snow Depth Not available.
6:47 AM 5:17 PM
Waxing Crescent, 38% visible
METAR KAFN 140552Z AUTO 34003KT 10SM CLR M26/M33 A3008 RMK AO2 SLP222 T12561328 11189 21256 53008
Pressure 30.19 in
Visibility 10.0 miles
Clouds Clear
Windchill -34 °F
Dew Point -23 °F
Humidity 65%
Rainfall 0.00 in
Snow Depth Not available.
6:47 AM 5:17 PM
Waxing Crescent, 38% visible
METAR KAFN 140552Z AUTO 34003KT 10SM CLR M26/M33 A3008 RMK AO2 SLP222 T12561328 11189 21256 53008

10-Day Weather Forecast

Almanac

Astronomy

Feb. 14, 2016 Rise Set
Actual Time
Civil Twilight
Nautical Twilight
Astronomical Twilight
Moon
Length of Visible Light
Length of Day
Tomorrow will be .
, % of the Moon is Illuminated

Today's Extremes

State Highs State Lows

Community

WunderPhotos

Upload Photos

1,892,753 photos uploaded!

WunderBlog® & News

Nearby

Air Quality

  Air Quality AQ Index Pollutant
Not available.

Snow Depth

Station Depth Elevation

Earthquake Activity

City Distance Mag. Time & Date
Minimum magnitude displayed is 2.5.

Coastal Water Temperatures

Place Temperature

Stations

Nearby Weather Stations

Station Location Temp. Windchill Dew Point Humidity Wind Precip. Elev Updated Type
                   

Watches & Warnings

Wind Chill Warning
Issued: 9:27 PM EST Feb. 13, 2016 – National Weather Service

... Wind chill warning remains in effect until noon EST Sunday...

* locations... include all of southern New England except Cape
Cod and the islands.

* Hazard types... life threatening wind chills.

* Wind chill readings... between 20 and 35 below zero.

* Timing... the worst of the wind chills will occur into Sunday
morning.

* Impacts... wind chills this cold can bring on frostbite in as
little as 10 minutes! Outdoor exposure should be limited in
these conditions. Strong winds this afternoon and evening may
down a few large tree limbs.

* Air temperatures... lows by early Sunday morning will fall to
near record cold values of 5 to 15 below zero... coldest over
higher elevations.

Precautionary/preparedness actions...

A wind chill warning is issued when the wind chill index is
likely to fall to -25 degrees or colder for at least 3 hours. A
wind chill index below -30 can bring about frostbite in as little
as 10 minutes. Outdoor exposure should be limited. If you are
heading outdoors... dress in layers and keep your hands and head
covered to protect against frostbite